Time;durP1;ratioP1;P1;durP2;ratioP2;P2;SDS_P1;SDS_P2;PMS_P1;PMS_P2;Temp;Humidity;BMP_temperature;BMP_pressure;BME280_temperature;BME280_humidity;BME280_pressure;Samples;Min_cycle;Max_cycle;Signal;HPM_P1;HPM_P2
2021/09/16 00:01:45;;;;;;;15.50;9.95;;;23.70;99.90;;;;;;5095749;28;20085;-76
2021/09/16 00:04:11;;;;;;;18.85;8.55;;;23.70;99.90;;;;;;5095732;28;20382;-79
2021/09/16 00:06:36;;;;;;;18.00;8.35;;;23.70;99.90;;;;;;5096086;28;20073;-76
2021/09/16 00:09:02;;;;;;;13.73;9.55;;;23.70;99.90;;;;;;5095992;28;20431;-76
2021/09/16 00:11:28;;;;;;;11.13;7.95;;;23.70;99.90;;;;;;5096276;28;20095;-75
2021/09/16 00:13:53;;;;;;;13.60;8.02;;;23.70;99.90;;;;;;5096286;28;20020;-77
2021/09/16 00:16:19;;;;;;;14.55;7.65;;;23.70;99.90;;;;;;5096497;28;20032;-75
2021/09/16 00:18:45;;;;;;;14.50;7.70;;;23.70;99.90;;;;;;5096007;28;20110;-76
2021/09/16 00:21:11;;;;;;;12.38;8.20;;;23.60;99.90;;;;;;5095825;28;20156;-76
2021/09/16 00:23:37;;;;;;;14.85;7.93;;;23.60;99.90;;;;;;5096450;28;20048;-76
2021/09/16 00:26:03;;;;;;;13.00;8.27;;;23.60;99.90;;;;;;5096149;28;20055;-77
2021/09/16 00:28:28;;;;;;;17.25;8.60;;;23.60;99.90;;;;;;5095876;28;20024;-77
2021/09/16 00:30:54;;;;;;;12.27;8.55;;;23.60;99.90;;;;;;5096052;28;20489;-74
2021/09/16 00:33:20;;;;;;;19.15;8.60;;;23.60;99.90;;;;;;5095999;28;20378;-77
2021/09/16 00:35:46;;;;;;;11.20;8.13;;;23.60;99.90;;;;;;5096000;28;20098;-75
2021/09/16 00:38:12;;;;;;;15.73;9.30;;;23.70;99.90;;;;;;5095767;28;20021;-76
2021/09/16 00:40:38;;;;;;;14.45;9.02;;;23.70;99.90;;;;;;5095817;28;20040;-75
2021/09/16 00:43:03;;;;;;;26.13;8.48;;;23.70;99.90;;;;;;5095708;28;20470;-79
2021/09/16 00:45:29;;;;;;;14.32;8.38;;;23.70;99.90;;;;;;5096190;28;20074;-77
2021/09/16 00:47:55;;;;;;;18.75;8.38;;;23.70;99.90;;;;;;5095418;28;20107;-77
2021/09/16 00:50:23;;;;;;;15.57;9.40;;;23.70;99.90;;;;;;5095739;28;20055;-76
2021/09/16 00:52:50;;;;;;;19.42;8.65;;;23.70;99.90;;;;;;5095034;28;20041;-77
2021/09/16 00:55:16;;;;;;;16.85;8.23;;;23.70;99.90;;;;;;5095451;28;20077;-76
2021/09/16 00:57:48;;;;;;;19.48;8.50;;;23.70;99.90;;;;;;5095632;28;20028;-78
2021/09/16 01:00:14;;;;;;;14.77;8.70;;;23.70;99.90;;;;;;5095397;28;20036;-77
2021/09/16 01:02:40;;;;;;;27.63;9.00;;;23.70;99.90;;;;;;5095412;28;20056;-75
2021/09/16 01:05:06;;;;;;;14.50;8.45;;;23.70;99.90;;;;;;5095324;28;20415;-75
2021/09/16 01:07:32;;;;;;;18.52;8.75;;;23.70;99.90;;;;;;5095137;28;20474;-79
2021/09/16 01:10:02;;;;;;;15.02;9.07;;;23.70;99.90;;;;;;5095569;28;20059;-80
2021/09/16 01:12:28;;;;;;;19.42;9.25;;;23.70;99.90;;;;;;5095148;28;20023;-75
2021/09/16 01:14:54;;;;;;;15.65;8.65;;;23.80;99.90;;;;;;5095136;28;20386;-74
2021/09/16 01:17:19;;;;;;;11.95;7.93;;;23.80;99.90;;;;;;5095101;28;20024;-76
2021/09/16 01:19:45;;;;;;;17.30;9.10;;;23.70;99.90;;;;;;5094814;28;20036;-76
2021/09/16 01:22:21;;;;;;;13.73;8.50;;;23.70;99.90;;;;;;5095089;28;20458;-77
2021/09/16 01:24:47;;;;;;;18.15;8.43;;;23.70;99.90;;;;;;5094787;28;20028;-78
2021/09/16 01:27:13;;;;;;;21.75;8.52;;;23.80;99.90;;;;;;5094917;28;20031;-80
2021/09/16 01:29:38;;;;;;;20.00;8.20;;;23.80;99.90;;;;;;5094710;28;20525;-79
2021/09/16 01:32:06;;;;;;;16.27;8.35;;;23.80;99.90;;;;;;5095045;28;20027;-77
2021/09/16 01:34:32;;;;;;;14.75;9.18;;;23.80;99.90;;;;;;5094755;28;20035;-81
2021/09/16 01:36:57;;;;;;;13.25;9.15;;;23.80;99.90;;;;;;5094464;28;20032;-79
2021/09/16 01:39:25;;;;;;;14.32;8.65;;;23.80;99.90;;;;;;5094809;28;20039;-79
2021/09/16 01:41:51;;;;;;;18.88;9.20;;;23.80;99.90;;;;;;5093963;28;20044;-78
2021/09/16 01:44:16;;;;;;;20.00;8.38;;;23.80;99.90;;;;;;5075596;28;20471;-79
2021/09/16 01:46:43;;;;;;;23.98;8.95;;;23.80;99.90;;;;;;5093698;28;20042;-76
2021/09/16 01:49:09;;;;;;;19.10;8.77;;;23.80;99.90;;;;;;5093830;28;20036;-76
2021/09/16 01:51:35;;;;;;;20.73;9.52;;;23.80;99.90;;;;;;5093834;28;20070;-76
2021/09/16 01:54:02;;;;;;;27.20;8.85;;;23.80;99.90;;;;;;5093455;28;20035;-77
2021/09/16 01:56:27;;;;;;;27.33;9.93;;;23.80;99.90;;;;;;5093474;28;20032;-76
2021/09/16 01:58:53;;;;;;;19.70;8.50;;;23.80;99.90;;;;;;5093638;28;20078;-75
2021/09/16 02:01:19;;;;;;;31.02;10.10;;;23.80;99.90;;;;;;5093551;28;20043;-76
2021/09/16 02:03:46;;;;;;;18.10;9.63;;;23.80;99.90;;;;;;5092825;28;20571;-82
2021/09/16 02:06:12;;;;;;;24.13;9.45;;;23.80;99.90;;;;;;5093365;28;20062;-82
2021/09/16 02:08:37;;;;;;;31.65;9.48;;;23.70;99.90;;;;;;5093236;28;20103;-80
2021/09/16 02:11:03;;;;;;;17.58;8.80;;;23.70;99.90;;;;;;5093288;28;20115;-78
2021/09/16 02:13:29;;;;;;;20.52;9.10;;;23.70;99.90;;;;;;5093316;28;20444;-78
2021/09/16 02:15:55;;;;;;;25.85;9.02;;;23.70;99.90;;;;;;5093105;28;20475;-78
2021/09/16 02:18:21;;;;;;;22.60;10.25;;;23.70;99.90;;;;;;5092978;28;20049;-83
2021/09/16 02:20:47;;;;;;;23.25;9.68;;;23.70;99.90;;;;;;5093157;28;20502;-77
2021/09/16 02:23:12;;;;;;;15.77;8.98;;;23.70;99.90;;;;;;5093561;28;20348;-78
2021/09/16 02:25:38;;;;;;;24.17;9.25;;;23.80;99.90;;;;;;5093251;28;20081;-78
2021/09/16 02:28:04;;;;;;;26.23;9.27;;;23.80;99.90;;;;;;5093187;28;20016;-76
2021/09/16 02:30:30;;;;;;;19.80;9.27;;;23.80;99.90;;;;;;5092980;28;20117;-75
2021/09/16 02:32:55;;;;;;;14.65;8.82;;;23.70;99.90;;;;;;5093349;28;20020;-76
2021/09/16 02:35:21;;;;;;;25.35;8.85;;;23.70;99.90;;;;;;5093024;28;20020;-81
2021/09/16 02:37:47;;;;;;;25.38;9.00;;;23.70;99.90;;;;;;5092848;28;20443;-77
2021/09/16 02:40:17;;;;;;;21.90;9.10;;;23.70;99.90;;;;;;5092887;28;20036;-77
2021/09/16 02:42:43;;;;;;;22.15;9.57;;;23.70;99.90;;;;;;5093133;28;20098;-77
2021/09/16 02:45:09;;;;;;;17.17;9.23;;;23.70;99.90;;;;;;5093270;28;20062;-75
2021/09/16 02:47:35;;;;;;;18.90;10.10;;;23.70;99.90;;;;;;5092941;28;20451;-76
2021/09/16 02:50:00;;;;;;;25.13;10.32;;;23.70;99.90;;;;;;5093089;28;20052;-76
2021/09/16 02:52:26;;;;;;;17.92;9.20;;;23.70;99.90;;;;;;5092718;28;20099;-76
2021/09/16 02:54:52;;;;;;;21.17;9.30;;;23.70;99.90;;;;;;5092736;28;20059;-75
2021/09/16 02:57:17;;;;;;;30.10;11.02;;;23.70;99.90;;;;;;5092615;28;20020;-81
2021/09/16 02:59:43;;;;;;;19.08;9.23;;;23.70;99.90;;;;;;5092555;28;20545;-81
2021/09/16 03:02:08;;;;;;;23.73;10.05;;;23.70;99.90;;;;;;5092533;28;20047;-84
2021/09/16 03:04:34;;;;;;;27.90;10.98;;;23.70;99.90;;;;;;5092459;28;20059;-76
2021/09/16 03:07:00;;;;;;;27.30;9.60;;;23.70;99.90;;;;;;5092412;28;20099;-77
2021/09/16 03:09:26;;;;;;;28.90;9.98;;;23.70;99.90;;;;;;5092360;28;20048;-76
2021/09/16 03:11:52;;;;;;;24.50;9.90;;;23.70;99.90;;;;;;5092347;28;20024;-76
2021/09/16 03:14:18;;;;;;;31.85;11.50;;;23.70;99.90;;;;;;5092346;28;20478;-76
2021/09/16 03:16:43;;;;;;;27.92;10.82;;;23.70;99.90;;;;;;5096175;28;20065;-77
2021/09/16 03:19:09;;;;;;;27.55;10.77;;;23.70;99.90;;;;;;5097209;28;20044;-75
2021/09/16 03:21:35;;;;;;;25.15;10.68;;;23.70;99.90;;;;;;5097075;28;20028;-76
2021/09/16 03:24:00;;;;;;;25.90;10.40;;;23.70;99.90;;;;;;5097362;28;20024;-75
2021/09/16 03:26:26;;;;;;;25.42;10.05;;;23.70;99.90;;;;;;5097177;28;20387;-79
2021/09/16 03:28:52;;;;;;;23.67;10.07;;;23.60;99.90;;;;;;5097028;28;20437;-79
2021/09/16 03:31:17;;;;;;;26.15;10.05;;;23.60;99.90;;;;;;5097376;28;20464;-77
2021/09/16 03:33:43;;;;;;;25.45;10.40;;;23.60;99.90;;;;;;5097096;28;20108;-75
2021/09/16 03:36:09;;;;;;;33.30;10.88;;;23.60;99.90;;;;;;5097831;28;20195;-75
2021/09/16 03:38:34;;;;;;;25.95;10.68;;;23.60;99.90;;;;;;5097278;28;20020;-77
2021/09/16 03:41:03;;;;;;;25.70;10.18;;;23.60;99.90;;;;;;5096678;28;20024;-81
2021/09/16 03:43:29;;;;;;;41.78;11.40;;;23.60;99.90;;;;;;5097018;28;20042;-80
2021/09/16 03:45:54;;;;;;;36.80;10.57;;;23.60;99.90;;;;;;5096966;28;20474;-77
2021/09/16 03:48:20;;;;;;;58.08;12.77;;;23.60;99.90;;;;;;5096762;28;20028;-77
2021/09/16 03:50:46;;;;;;;46.42;10.80;;;23.60;99.90;;;;;;5096804;28;20063;-78
2021/09/16 03:53:12;;;;;;;40.67;11.15;;;23.70;99.90;;;;;;5096696;28;20420;-76
2021/09/16 03:55:38;;;;;;;37.55;10.60;;;23.60;99.90;;;;;;5096672;28;20572;-79
2021/09/16 03:58:03;;;;;;;48.97;10.90;;;23.60;99.90;;;;;;5096687;28;20107;-78
2021/09/16 04:00:29;;;;;;;40.90;11.07;;;23.60;99.90;;;;;;5096402;28;20486;-76
2021/09/16 04:02:55;;;;;;;41.53;11.27;;;23.60;99.90;;;;;;5078280;28;20476;-77
2021/09/16 04:05:20;;;;;;;43.88;12.18;;;23.60;99.90;;;;;;5096537;28;20077;-78
2021/09/16 04:07:46;;;;;;;42.50;10.55;;;23.60;99.90;;;;;;5096651;28;20028;-78
2021/09/16 04:10:13;;;;;;;39.40;10.98;;;23.70;99.90;;;;;;5096422;28;20052;-75
2021/09/16 04:12:39;;;;;;;27.92;10.90;;;23.70;99.90;;;;;;5078363;28;20028;-77
2021/09/16 04:15:05;;;;;;;44.28;10.35;;;23.70;99.90;;;;;;5096237;28;20024;-75
2021/09/16 04:17:31;;;;;;;37.33;10.52;;;23.70;99.90;;;;;;5096119;28;20027;-75
2021/09/16 04:19:57;;;;;;;39.92;10.68;;;23.70;99.90;;;;;;5096186;28;20078;-77
2021/09/16 04:22:23;;;;;;;35.17;9.98;;;23.60;99.90;;;;;;5096217;28;20020;-76
2021/09/16 04:24:48;;;;;;;36.60;11.10;;;23.60;99.90;;;;;;5096261;28;20024;-78
2021/09/16 04:27:14;;;;;;;46.10;11.35;;;23.60;99.90;;;;;;5095228;28;20462;-77
2021/09/16 04:29:43;;;;;;;41.28;11.45;;;23.60;99.90;;;;;;5077844;28;20028;-80
2021/09/16 04:32:09;;;;;;;40.97;11.50;;;23.60;99.90;;;;;;5096329;28;20020;-77
2021/09/16 04:34:35;;;;;;;28.58;10.40;;;23.60;99.90;;;;;;5095779;28;20036;-76
2021/09/16 04:37:01;;;;;;;40.75;10.18;;;23.60;99.90;;;;;;5095820;28;20020;-78
2021/09/16 04:39:27;;;;;;;34.00;10.30;;;23.70;99.90;;;;;;5095861;28;20371;-76
2021/09/16 04:41:52;;;;;;;34.72;10.27;;;23.70;99.90;;;;;;5095710;28;20035;-80
2021/09/16 04:44:18;;;;;;;41.65;11.15;;;23.70;99.90;;;;;;5096035;28;20439;-80
2021/09/16 04:46:44;;;;;;;48.85;12.27;;;23.70;99.90;;;;;;5095725;28;20114;-76
2021/09/16 04:49:09;;;;;;;51.38;11.07;;;23.60;99.90;;;;;;5095477;28;20028;-79
2021/09/16 04:51:35;;;;;;;39.83;9.75;;;23.60;99.90;;;;;;5095815;28;20020;-81
2021/09/16 04:54:01;;;;;;;39.42;10.95;;;23.50;99.90;;;;;;5095696;28;20028;-78
2021/09/16 04:56:26;;;;;;;30.08;10.52;;;23.50;99.90;;;;;;5095599;28;20030;-79
2021/09/16 04:58:52;;;;;;;40.58;11.00;;;23.50;99.90;;;;;;5095571;28;20382;-77
2021/09/16 05:01:18;;;;;;;38.40;11.27;;;23.50;99.90;;;;;;5095396;28;20023;-80
2021/09/16 05:03:44;;;;;;;33.60;10.43;;;23.50;99.90;;;;;;5095498;28;20103;-77
2021/09/16 05:06:09;;;;;;;37.63;10.50;;;23.50;99.90;;;;;;5095322;28;20024;-74
2021/09/16 05:08:35;;;;;;;43.53;11.20;;;23.50;99.90;;;;;;5095088;28;20027;-81
2021/09/16 05:11:01;;;;;;;34.53;10.98;;;23.50;99.90;;;;;;5095197;28;20032;-77
2021/09/16 05:13:27;;;;;;;38.50;10.10;;;23.50;99.90;;;;;;5095298;28;20028;-79
2021/09/16 05:15:54;;;;;;;29.42;10.18;;;23.60;99.90;;;;;;5095164;28;20077;-74
2021/09/16 05:18:19;;;;;;;37.45;12.45;;;23.60;99.90;;;;;;5095488;28;20363;-79
2021/09/16 05:20:45;;;;;;;49.95;11.18;;;23.60;99.90;;;;;;5094762;28;20047;-76
2021/09/16 05:23:11;;;;;;;78.80;13.48;;;23.70;99.90;;;;;;5095124;28;20450;-76
2021/09/16 05:25:37;;;;;;;34.40;10.40;;;23.70;99.90;;;;;;5095069;28;20150;-78
2021/09/16 05:28:03;;;;;;;42.03;11.55;;;23.80;99.90;;;;;;5094803;28;20417;-76
2021/09/16 05:30:28;;;;;;;42.08;10.70;;;23.80;99.90;;;;;;5094812;28;20387;-75
2021/09/16 05:32:54;;;;;;;33.20;9.52;;;23.80;99.90;;;;;;5094766;28;20024;-76
2021/09/16 05:35:20;;;;;;;47.47;10.23;;;23.80;99.90;;;;;;5094836;28;20028;-75
2021/09/16 05:37:46;;;;;;;45.25;10.90;;;23.80;99.90;;;;;;5094654;28;20028;-76
2021/09/16 05:40:12;;;;;;;40.00;10.43;;;23.70;99.90;;;;;;5093795;28;20032;-76
2021/09/16 05:42:38;;;;;;;35.63;9.32;;;23.70;99.90;;;;;;5094468;28;20031;-76
2021/09/16 05:45:08;;;;;;;40.45;10.18;;;23.70;99.90;;;;;;5094514;28;20032;-76
2021/09/16 05:47:34;;;;;;;46.10;11.07;;;23.70;99.90;;;;;;5094545;28;20056;-76
2021/09/16 05:50:00;;;;;;;41.45;10.75;;;23.70;99.90;;;;;;5094555;28;20032;-75
2021/09/16 05:52:26;;;;;;;44.92;10.77;;;23.70;99.90;;;;;;5094352;28;20031;-75
2021/09/16 05:54:52;;;;;;;43.60;11.25;;;23.70;99.90;;;;;;5094495;28;20466;-75
2021/09/16 05:57:17;;;;;;;44.65;11.27;;;23.70;99.90;;;;;;5094154;28;20024;-76
2021/09/16 05:59:43;;;;;;;48.00;10.38;;;23.70;99.90;;;;;;5094449;28;20475;-76
2021/09/16 06:02:09;;;;;;;59.78;11.02;;;23.70;99.90;;;;;;5094442;28;20118;-76
2021/09/16 06:04:34;;;;;;;44.75;11.40;;;23.70;99.90;;;;;;5094144;28;20371;-76
2021/09/16 06:07:04;;;;;;;50.08;12.13;;;23.80;99.90;;;;;;5094038;28;20020;-74
2021/09/16 06:09:32;;;;;;;42.03;11.02;;;23.70;99.90;;;;;;5093725;28;20052;-74
2021/09/16 06:12:00;;;;;;;57.50;11.30;;;23.80;99.90;;;;;;5094365;28;20020;-76
2021/09/16 06:14:25;;;;;;;52.55;11.07;;;23.90;99.90;;;;;;5093791;28;20084;-76
2021/09/16 06:16:52;;;;;;;47.63;9.50;;;23.80;99.90;;;;;;5093893;28;20099;-75
2021/09/16 06:19:18;;;;;;;43.00;9.75;;;23.80;99.90;;;;;;5093895;28;20028;-75
2021/09/16 06:21:44;;;;;;;47.60;11.20;;;23.90;99.90;;;;;;5093894;28;20016;-76
2021/09/16 06:24:10;;;;;;;41.45;10.45;;;23.90;99.90;;;;;;5093837;28;20035;-76
2021/09/16 06:26:36;;;;;;;37.10;9.38;;;24.00;99.90;;;;;;5093646;28;20016;-75
2021/09/16 06:29:01;;;;;;;45.05;10.23;;;24.00;99.90;;;;;;5093633;28;20028;-76
2021/09/16 06:31:27;;;;;;;50.45;11.82;;;24.10;99.90;;;;;;5093799;28;20024;-75
2021/09/16 06:33:53;;;;;;;38.75;10.32;;;24.20;99.90;;;;;;5093571;28;20107;-76
2021/09/16 06:36:19;;;;;;;38.30;10.05;;;24.40;99.90;;;;;;5093882;28;20038;-75
2021/09/16 06:38:45;;;;;;;44.35;10.40;;;24.60;99.90;;;;;;5093653;28;20016;-76
2021/09/16 06:41:10;;;;;;;43.78;9.65;;;25.10;99.90;;;;;;5093504;28;20112;-75
2021/09/16 06:43:36;;;;;;;47.50;9.13;;;25.60;99.90;;;;;;5093646;28;20024;-77
2021/09/16 06:46:02;;;;;;;42.80;9.68;;;25.80;99.90;;;;;;5093635;28;20098;-76
2021/09/16 06:48:28;;;;;;;52.28;8.88;;;26.20;99.90;;;;;;5075221;28;20028;-76
2021/09/16 06:50:53;;;;;;;39.28;9.00;;;26.40;99.90;;;;;;5093205;28;20017;-76
2021/09/16 06:53:19;;;;;;;36.78;9.40;;;26.90;99.90;;;;;;5093470;28;20394;-77
2021/09/16 06:55:45;;;;;;;36.47;8.05;;;27.60;99.90;;;;;;5093738;28;20103;-76
2021/09/16 06:58:10;;;;;;;34.88;7.93;;;27.70;99.90;;;;;;5093175;28;20485;-75
2021/09/16 07:00:36;;;;;;;38.55;9.85;;;27.70;99.90;;;;;;5093382;28;20036;-76
2021/09/16 07:03:02;;;;;;;36.30;9.07;;;27.10;99.90;;;;;;5093372;28;20080;-78
2021/09/16 07:05:28;;;;;;;41.35;8.43;;;26.60;99.90;;;;;;5093456;28;20114;-76
2021/09/16 07:07:54;;;;;;;29.75;8.75;;;26.60;99.90;;;;;;5093199;28;20475;-76
2021/09/16 07:10:19;;;;;;;48.35;8.73;;;26.30;99.90;;;;;;5092954;28;20056;-76
2021/09/16 07:12:46;;;;;;;35.63;7.63;;;26.20;99.90;;;;;;5093052;28;20044;-76
2021/09/16 07:15:12;;;;;;;27.55;8.55;;;25.70;99.90;;;;;;5093551;28;20100;-77
2021/09/16 07:17:38;;;;;;;37.75;8.02;;;25.50;99.90;;;;;;5093136;28;20070;-75
2021/09/16 07:20:04;;;;;;;22.98;7.60;;;25.50;99.90;;;;;;5093004;28;20048;-77
2021/09/16 07:22:30;;;;;;;24.67;7.95;;;25.50;99.90;;;;;;5093114;28;20355;-75
2021/09/16 07:24:56;;;;;;;39.17;9.50;;;25.30;99.90;;;;;;5093340;28;20024;-77
2021/09/16 07:27:21;;;;;;;29.30;7.95;;;25.30;99.90;;;;;;5093073;28;20016;-77
2021/09/16 07:29:47;;;;;;;43.00;8.82;;;25.20;99.90;;;;;;5074935;28;20035;-78
2021/09/16 07:32:14;;;;;;;28.92;7.65;;;25.20;99.90;;;;;;5092946;28;20020;-75
2021/09/16 07:34:39;;;;;;;47.80;8.73;;;25.30;99.90;;;;;;5092854;28;20024;-75
2021/09/16 07:37:05;;;;;;;34.10;7.22;;;25.30;99.90;;;;;;5093113;28;20492;-75
2021/09/16 07:39:31;;;;;;;28.15;9.00;;;25.30;99.90;;;;;;5092971;28;20032;-76
2021/09/16 07:41:57;;;;;;;27.55;6.57;;;25.30;99.90;;;;;;5093137;28;20368;-75
2021/09/16 07:44:23;;;;;;;26.00;7.82;;;25.20;99.90;;;;;;5092903;28;20102;-76
2021/09/16 07:46:49;;;;;;;37.78;7.07;;;25.20;99.90;;;;;;5092847;28;20031;-76
2021/09/16 07:49:14;;;;;;;25.80;7.97;;;25.20;99.90;;;;;;5092996;28;20020;-76
2021/09/16 07:51:40;;;;;;;31.45;7.85;;;25.10;99.90;;;;;;5092706;28;20028;-76
2021/09/16 07:54:06;;;;;;;37.47;8.75;;;25.20;99.90;;;;;;5092715;28;20033;-76
2021/09/16 07:56:32;;;;;;;23.80;7.75;;;25.10;99.90;;;;;;5093267;28;20442;-76
2021/09/16 07:58:58;;;;;;;32.03;8.43;;;25.20;99.90;;;;;;5092676;28;20100;-78
2021/09/16 08:01:25;;;;;;;33.95;8.25;;;25.20;99.90;;;;;;5092081;28;20027;-77
2021/09/16 08:03:52;;;;;;;25.52;7.68;;;25.10;99.90;;;;;;5095201;28;20026;-78
2021/09/16 08:06:18;;;;;;;27.33;8.05;;;25.20;99.90;;;;;;5095800;28;20112;-79
2021/09/16 08:08:43;;;;;;;27.70;8.35;;;25.10;99.90;;;;;;5095858;28;20052;-78
2021/09/16 08:11:11;;;;;;;31.38;8.10;;;25.00;99.90;;;;;;5095664;28;20051;-79
2021/09/16 08:13:36;;;;;;;21.48;7.18;;;24.90;99.90;;;;;;5095982;28;20103;-76
2021/09/16 08:16:04;;;;;;;26.90;7.90;;;25.00;99.90;;;;;;5095764;28;20087;-81
2021/09/16 08:18:30;;;;;;;32.17;7.60;;;25.10;99.90;;;;;;5095525;28;20103;-78
2021/09/16 08:20:56;;;;;;;31.27;8.13;;;25.30;99.90;;;;;;5095861;28;20107;-78
2021/09/16 08:23:22;;;;;;;36.08;7.75;;;25.60;99.90;;;;;;5096083;28;20020;-76
2021/09/16 08:25:48;;;;;;;33.15;7.70;;;25.60;99.90;;;;;;5095675;28;20074;-75
2021/09/16 08:28:14;;;;;;;30.55;7.93;;;25.60;99.90;;;;;;5095450;28;20035;-77
2021/09/16 08:30:41;;;;;;;29.13;7.90;;;25.60;99.90;;;;;;5095640;28;20484;-75
2021/09/16 08:33:07;;;;;;;29.77;7.90;;;25.60;99.90;;;;;;5095435;28;20020;-78
2021/09/16 08:35:39;;;;;;;28.08;7.80;;;25.70;99.90;;;;;;5095001;28;20024;-77
2021/09/16 08:38:05;;;;;;;24.80;6.13;;;25.70;99.90;;;;;;5094573;28;20109;-77
2021/09/16 08:40:31;;;;;;;31.15;7.43;;;25.60;99.90;;;;;;5094834;28;20028;-77
2021/09/16 08:42:57;;;;;;;29.08;7.07;;;25.60;99.90;;;;;;5095601;28;20020;-78
2021/09/16 08:45:23;;;;;;;25.42;6.45;;;25.60;99.90;;;;;;5095581;28;20555;-76
2021/09/16 08:47:51;;;;;;;34.38;7.93;;;25.60;99.90;;;;;;5095830;28;20032;-77
2021/09/16 08:50:20;;;;;;;18.63;6.82;;;25.80;99.90;;;;;;5095723;28;20416;-77
2021/09/16 08:52:47;;;;;;;28.13;7.35;;;26.20;99.90;;;;;;5095709;28;20024;-76
2021/09/16 08:55:15;;;;;;;31.52;7.68;;;26.70;99.90;;;;;;5095330;28;20098;-76
2021/09/16 08:57:43;;;;;;;22.20;7.03;;;26.90;99.90;;;;;;5095374;28;20020;-77
2021/09/16 09:00:28;;;;;;;27.98;7.13;;;27.20;99.90;;;;;;5095285;28;20122;-76
2021/09/16 09:02:55;;;;;;;23.77;6.53;;;28.00;99.90;;;;;;5095466;28;20027;-77
2021/09/16 09:05:22;;;;;;;17.20;6.50;;;28.20;99.90;;;;;;5095192;28;20056;-76
2021/09/16 09:07:51;;;;;;;24.52;7.38;;;27.70;99.90;;;;;;5095004;28;20367;-77
2021/09/16 09:10:45;;;;;;;19.92;6.15;;;27.60;99.90;;;;;;5095090;28;20048;-79
2021/09/16 09:13:17;;;;;;;33.95;7.00;;;27.50;99.90;;;;;;5095070;28;20020;-77
2021/09/16 09:15:43;;;;;;;;;;;27.10;99.90;;;;;;5095739;28;20470;-76
2021/09/16 09:18:15;;;;;;;23.27;7.38;;;26.60;99.90;;;;;;5095119;28;19908;-75
2021/09/16 09:21:03;;;;;;;30.38;6.88;;;26.50;99.90;;;;;;5094870;28;20125;-76
2021/09/16 09:23:34;;;;;;;27.35;7.05;;;26.50;99.90;;;;;;5094960;28;20035;-76
2021/09/16 09:26:17;;;;;;;37.13;8.32;;;26.30;99.90;;;;;;5094700;28;20020;-76
2021/09/16 09:28:43;;;;;;;28.33;7.85;;;26.40;99.90;;;;;;5094777;28;20024;-77
2021/09/16 09:31:15;;;;;;;24.58;7.82;;;26.30;99.90;;;;;;5094663;28;20368;-77
2021/09/16 09:33:42;;;;;;;32.88;7.38;;;26.20;99.90;;;;;;5094810;28;20047;-78
2021/09/16 09:36:15;;;;;;;24.77;8.52;;;26.20;99.90;;;;;;5095012;28;20099;-78
2021/09/16 09:39:01;;;;;;;27.35;7.72;;;26.20;99.90;;;;;;5094741;28;20564;-77
2021/09/16 09:41:35;;;;;;;35.60;7.25;;;26.10;99.90;;;;;;5094478;28;20040;-77
2021/09/16 09:44:04;;;;;;;27.27;6.82;;;25.90;99.90;;;;;;5094612;28;20059;-78
2021/09/16 09:46:36;;;;;;;34.88;8.23;;;25.90;99.90;;;;;;5094642;28;20032;-78
2021/09/16 09:49:08;;;;;;;29.17;7.13;;;26.00;99.90;;;;;;5094328;28;20028;-79
2021/09/16 09:52:05;;;;;;;36.72;7.63;;;26.00;99.90;;;;;;5094463;28;20107;-76
2021/09/16 09:54:40;;;;;;;27.05;6.20;;;26.20;99.90;;;;;;5077029;28;20040;-79
2021/09/16 09:57:08;;;;;;;26.52;7.65;;;26.20;99.90;;;;;;5094387;28;20031;-79
2021/09/16 09:59:53;;;;;;;23.90;6.88;;;26.20;99.90;;;;;;5094433;28;20089;-78
2021/09/16 10:02:20;;;;;;;24.75;6.88;;;26.10;99.90;;;;;;5094295;28;20054;-76
2021/09/16 10:04:47;;;;;;;22.50;6.22;;;26.10;99.90;;;;;;5094551;28;20412;-79
2021/09/16 10:07:40;;;;;;;26.10;7.03;;;26.00;99.90;;;;;;5094044;28;20039;-78
2021/09/16 10:10:09;;;;;;;16.38;6.30;;;26.00;99.90;;;;;;5091204;28;20048;-77
2021/09/16 10:12:35;;;;;;;21.17;6.53;;;25.90;99.90;;;;;;5093982;28;20106;-78
2021/09/16 10:15:02;;;;;;;23.15;6.95;;;25.90;99.90;;;;;;5094153;28;20035;-76
2021/09/16 10:17:28;;;;;;;23.17;6.40;;;25.70;99.90;;;;;;5093944;28;20017;-78
2021/09/16 10:19:54;;;;;;;26.58;6.68;;;25.60;99.90;;;;;;5093908;28;20531;-78
2021/09/16 10:22:21;;;;;;;29.85;7.35;;;25.40;99.90;;;;;;5094116;28;20024;-78
2021/09/16 10:24:47;;;;;;;29.23;7.82;;;25.30;99.90;;;;;;5075011;28;20020;-78
2021/09/16 10:27:32;;;;;;;24.52;7.15;;;25.20;99.90;;;;;;5093973;28;20016;-77
2021/09/16 10:30:20;;;;;;;22.77;7.63;;;25.10;99.90;;;;;;5093912;28;20473;-76
2021/09/16 10:32:57;;;;;;;23.42;8.82;;;25.10;99.90;;;;;;5093815;28;20451;-76
2021/09/16 10:35:23;;;;;;;34.63;8.38;;;25.10;99.90;;;;;;5093981;28;20370;-76
2021/09/16 10:37:49;;;;;;;32.47;8.18;;;25.00;99.90;;;;;;5093746;28;20078;-76
2021/09/16 10:40:28;;;;;;;25.92;8.80;;;25.00;99.90;;;;;;5093591;28;20036;-77
2021/09/16 10:42:57;;;;;;;28.20;8.27;;;25.00;99.90;;;;;;5093378;28;20047;-76
2021/09/16 10:45:30;;;;;;;31.92;9.18;;;24.90;99.90;;;;;;5075314;28;20388;-77
2021/09/16 10:48:24;;;;;;;33.05;8.68;;;25.00;99.90;;;;;;5093405;28;20080;-77
2021/09/16 10:50:54;;;;;;;23.65;8.98;;;25.00;99.90;;;;;;5084739;28;20462;-77
2021/09/16 10:53:41;;;;;;;26.58;8.00;;;25.00;99.90;;;;;;5093749;28;20016;-76
2021/09/16 10:56:27;;;;;;;24.98;8.57;;;25.00;99.90;;;;;;5092400;28;20028;-77
2021/09/16 10:58:54;;;;;;;28.48;9.18;;;24.90;99.90;;;;;;5093259;28;20016;-77
2021/09/16 11:01:56;;;;;;;35.28;9.68;;;24.90;99.90;;;;;;5093381;28;20024;-76
2021/09/16 11:04:23;;;;;;;32.25;9.07;;;24.90;99.90;;;;;;5011543;28;20089;-76
2021/09/16 11:06:49;;;;;;;24.73;8.48;;;24.70;99.90;;;;;;5077600;28;20531;-77
2021/09/16 11:09:25;;;;;;;34.70;7.85;;;24.70;99.90;;;;;;5092885;28;20040;-76
2021/09/16 11:12:03;;;;;;;25.00;9.68;;;24.60;99.90;;;;;;5092973;28;20024;-75
2021/09/16 11:14:32;;;;;;;29.30;8.80;;;24.60;99.90;;;;;;5093072;28;20089;-76
2021/09/16 11:17:00;;;;;;;21.17;8.45;;;24.40;99.90;;;;;;5093571;28;20031;-77
2021/09/16 11:19:26;;;;;;;29.42;9.88;;;24.30;99.90;;;;;;5093088;28;20035;-77
2021/09/16 11:22:00;;;;;;;20.85;8.60;;;24.20;99.90;;;;;;5092724;28;20173;-78
2021/09/16 11:24:35;;;;;;;41.45;10.52;;;23.90;99.90;;;;;;5093236;28;20022;-78
2021/09/16 11:27:01;;;;;;;26.15;9.25;;;23.80;99.90;;;;;;5092829;28;20059;-78
2021/09/16 11:29:44;;;;;;;21.77;9.43;;;23.80;99.90;;;;;;5093034;28;20060;-78
2021/09/16 11:32:11;;;;;;;37.05;10.82;;;23.70;99.90;;;;;;5092965;28;20158;-78
2021/09/16 11:34:37;;;;;;;26.48;10.40;;;23.70;99.90;;;;;;5093403;28;20157;-78
2021/09/16 11:37:17;;;;;;;24.63;9.27;;;23.60;99.90;;;;;;5095296;28;20484;-78
2021/09/16 11:39:55;;;;;;;31.73;10.00;;;23.50;99.90;;;;;;5096878;28;20047;-77
2021/09/16 11:42:21;;;;;;;24.65;10.27;;;23.40;99.90;;;;;;5079062;28;20055;-78
2021/09/16 11:45:05;;;;;;;29.83;8.70;;;23.40;99.90;;;;;;5097125;28;20469;-76
2021/09/16 11:47:46;;;;;;;25.45;9.38;;;23.40;99.90;;;;;;5096710;28;20016;-77
2021/09/16 11:50:29;;;;;;;30.58;9.10;;;23.30;99.90;;;;;;5097139;28;20023;-77
2021/09/16 11:53:16;;;;;;;20.85;8.30;;;23.20;99.90;;;;;;5096959;28;20080;-77
2021/09/16 11:55:49;;;;;;;25.13;8.65;;;23.20;99.90;;;;;;5096639;28;20058;-77
2021/09/16 11:58:15;;;;;;;35.63;9.43;;;23.20;99.90;;;;;;5096830;28;20036;-77
2021/09/16 12:01:05;;;;;;;26.13;8.45;;;23.20;99.90;;;;;;5096541;28;20028;-76
2021/09/16 12:03:35;;;;;;;37.78;8.98;;;23.20;99.90;;;;;;5096731;28;20028;-77
2021/09/16 12:06:05;;;;;;;24.80;9.98;;;23.30;99.90;;;;;;5096519;28;20031;-78
2021/09/16 12:08:56;;;;;;;23.33;8.85;;;23.20;99.90;;;;;;5096290;28;20050;-77
2021/09/16 12:11:24;;;;;;;33.20;8.77;;;23.30;99.90;;;;;;5096007;28;20046;-77
2021/09/16 12:13:58;;;;;;;27.42;9.45;;;23.50;99.90;;;;;;5096431;28;20046;-77
2021/09/16 12:16:25;;;;;;;29.08;9.38;;;23.50;99.90;;;;;;5096626;28;20020;-78
2021/09/16 12:18:57;;;;;;;27.58;10.88;;;23.20;99.90;;;;;;5096421;28;20024;-77
2021/09/16 12:21:24;;;;;;;25.25;10.45;;;23.30;99.90;;;;;;5096193;28;20056;-77
2021/09/16 12:23:54;;;;;;;29.10;9.82;;;23.40;99.90;;;;;;5096163;28;20031;-77
2021/09/16 12:26:21;;;;;;;21.83;9.65;;;23.40;99.90;;;;;;5077639;28;20049;-77
2021/09/16 12:28:53;;;;;;;31.40;9.82;;;23.30;99.90;;;;;;5096136;28;20060;-77
2021/09/16 12:31:35;;;;;;;35.42;9.38;;;23.20;99.90;;;;;;5096407;28;20024;-77
2021/09/16 12:34:01;;;;;;;22.83;7.75;;;23.20;99.90;;;;;;5097360;28;20024;-76
2021/09/16 12:36:28;;;;;;;28.35;8.82;;;23.20;99.90;;;;;;5098654;28;20153;-76
2021/09/16 12:39:15;;;;;;;23.77;8.00;;;23.20;99.90;;;;;;5080144;28;20028;-76